Time;durP1;ratioP1;P1;durP2;ratioP2;P2;SDS_P1;SDS_P2;PMS_P1;PMS_P2;Temp;Humidity;BMP_temperature;BMP_pressure;BME280_temperature;BME280_humidity;BME280_pressure;Samples;Min_cycle;Max_cycle;Signal;HPM_P1;HPM_P2
2022/05/21 00:01:38;;;;;;;9.05;5.05;;;;;;;;;;5054012;28;20418;-43
2022/05/21 00:04:04;;;;;;;11.32;4.80;;;;;;;;;;5054115;28;20380;-42
2022/05/21 00:06:29;;;;;;;6.20;5.28;;;;;;;;;;5055044;28;20031;-43
2022/05/21 00:08:54;;;;;;;9.73;5.82;;;;;;;;;;5053958;28;20025;-41
2022/05/21 00:11:20;;;;;;;9.48;5.63;;;;;;;;;;5053855;28;20117;-43
2022/05/21 00:13:47;;;;;;;16.70;6.75;;;;;;;;;;5053443;28;20067;-45
2022/05/21 00:16:12;;;;;;;14.02;6.72;;;;;;;;;;5055131;28;20379;-43
2022/05/21 00:18:37;;;;;;;10.63;6.40;;;;;;;;;;5054006;28;20043;-43
2022/05/21 00:21:03;;;;;;;14.60;6.68;;;;;;;;;;5055117;28;20510;-43
2022/05/21 00:23:30;;;;;;;13.32;6.93;;;;;;;;;;5054624;28;20044;-43
2022/05/21 00:25:59;;;;;;;13.40;6.63;;;;;;;;;;5053304;28;20127;-42
2022/05/21 00:28:24;;;;;;;12.18;6.22;;;;;;;;;;5053589;28;20460;-43
2022/05/21 00:30:50;;;;;;;10.70;5.95;;;;;;;;;;5054619;28;20088;-43
2022/05/21 00:33:15;;;;;;;10.00;6.03;;;;;;;;;;5053595;28;20025;-43
2022/05/21 00:35:40;;;;;;;11.50;6.00;;;;;;;;;;5053624;28;20025;-43
2022/05/21 00:38:06;;;;;;;15.38;5.55;;;;;;;;;;5054606;28;20105;-44
2022/05/21 00:40:31;;;;;;;15.45;5.78;;;;;;;;;;5054555;28;20028;-43
2022/05/21 00:42:57;;;;;;;10.43;5.25;;;;;;;;;;5053158;28;20044;-44
2022/05/21 00:45:24;;;;;;;7.10;4.90;;;;;;;;;;5054283;28;20021;-43
2022/05/21 00:47:49;;;;;;;8.10;5.20;;;;;;;;;;5054689;28;20056;-43
2022/05/21 00:50:16;;;;;;;13.25;5.15;;;;;;;;;;5053192;28;20412;-43
2022/05/21 00:52:41;;;;;;;11.00;4.82;;;;;;;;;;5054386;28;20449;-43
2022/05/21 00:55:12;;;;;;;9.27;5.32;;;;;;;;;;5054413;28;20017;-43
2022/05/21 00:57:44;;;;;;;11.40;5.15;;;;;;;;;;5053970;28;20078;-44
2022/05/21 01:00:12;;;;;;;8.60;5.43;;;;;;;;;;5053126;28;20098;-43
2022/05/21 01:02:44;;;;;;;10.05;4.95;;;;;;;;;;5051885;28;20033;-44
2022/05/21 01:05:11;;;;;;;8.00;4.75;;;;;;;;;;5052768;28;20028;-43
2022/05/21 01:07:37;;;;;;;12.30;4.90;;;;;;;;;;5052800;28;20422;-43
2022/05/21 01:10:03;;;;;;;9.23;5.20;;;;;;;;;;5053860;28;20013;-43
2022/05/21 01:12:32;;;;;;;8.55;5.80;;;;;;;;;;5053907;28;20029;-43
2022/05/21 01:14:59;;;;;;;10.95;6.05;;;;;;;;;;5052761;28;20025;-43
2022/05/21 01:17:24;;;;;;;10.75;4.97;;;;;;;;;;5052624;28;20102;-43
2022/05/21 01:20:00;;;;;;;9.60;6.18;;;;;;;;;;5054088;28;20418;-44
2022/05/21 01:22:26;;;;;;;10.15;5.55;;;;;;;;;;5052298;28;20036;-43
2022/05/21 01:24:52;;;;;;;14.68;6.35;;;;;;;;;;5053198;28;20190;-43
2022/05/21 01:27:19;;;;;;;11.48;6.40;;;;;;;;;;5052903;28;20065;-43
2022/05/21 01:29:46;;;;;;;10.95;6.18;;;;;;;;;;5053697;28;20028;-43
2022/05/21 01:32:16;;;;;;;9.73;6.32;;;;;;;;;;5054036;28;20021;-43
2022/05/21 01:34:41;;;;;;;14.13;6.20;;;;;;;;;;5053659;28;20021;-44
2022/05/21 01:37:06;;;;;;;12.10;6.25;;;;;;;;;;5053231;28;20070;-43
2022/05/21 01:39:32;;;;;;;23.58;6.15;;;;;;;;;;5052005;28;20021;-43
2022/05/21 01:41:57;;;;;;;11.68;6.50;;;;;;;;;;5053651;28;20032;-43
2022/05/21 01:44:40;;;;;;;14.00;6.25;;;;;;;;;;5053356;28;20025;-43
2022/05/21 01:47:10;;;;;;;13.93;7.22;;;;;;;;;;5052145;28;20376;-43
2022/05/21 01:49:36;;;;;;;10.20;6.18;;;;;;;;;;5051958;28;20443;-43
2022/05/21 01:52:02;;;;;;;12.40;6.28;;;;;;;;;;5053150;28;20096;-44
2022/05/21 01:54:28;;;;;;;13.55;7.47;;;;;;;;;;5052241;28;20108;-43
2022/05/21 01:56:53;;;;;;;12.38;6.50;;;;;;;;;;5053130;28;20105;-43
2022/05/21 01:59:18;;;;;;;13.55;6.55;;;;;;;;;;5053202;28;20017;-43
2022/05/21 02:01:44;;;;;;;10.13;5.38;;;;;;;;;;5051733;28;20025;-42
2022/05/21 02:04:09;;;;;;;14.88;5.90;;;;;;;;;;5053095;28;20029;-44
2022/05/21 02:06:34;;;;;;;9.52;5.70;;;;;;;;;;5051594;28;20028;-43
2022/05/21 02:09:00;;;;;;;10.18;5.43;;;;;;;;;;5053051;28;20028;-43
2022/05/21 02:11:25;;;;;;;11.95;5.18;;;;;;;;;;5053044;28;20055;-43
2022/05/21 02:13:51;;;;;;;7.10;5.55;;;;;;;;;;5052705;28;20353;-43
2022/05/21 02:16:16;;;;;;;11.68;5.53;;;;;;;;;;5052950;28;20086;-44
2022/05/21 02:18:41;;;;;;;5.63;4.85;;;;;;;;;;5052953;28;20077;-44
2022/05/21 02:21:07;;;;;;;7.53;5.07;;;;;;;;;;5051287;28;20456;-44
2022/05/21 02:23:34;;;;;;;6.90;4.88;;;;;;;;;;5052797;28;20056;-43
2022/05/21 02:26:00;;;;;;;13.77;6.68;;;;;;;;;;5052702;28;20049;-44
2022/05/21 02:28:25;;;;;;;11.57;6.22;;;;;;;;;;5051607;28;20033;-43
2022/05/21 02:30:51;;;;;;;12.50;6.60;;;;;;;;;;5051532;28;20436;-43
2022/05/21 02:33:16;;;;;;;9.48;6.28;;;;;;;;;;5051458;28;20027;-43
2022/05/21 02:35:41;;;;;;;16.35;6.13;;;;;;;;;;5051202;28;20017;-43
2022/05/21 02:40:50;;;;;;;9.52;5.45;;;;;;;;;;5052761;28;20028;-44
2022/05/21 02:43:16;;;;;;;8.15;5.80;;;;;;;;;;5051539;28;20029;-44
2022/05/21 02:45:41;;;;;;;9.48;6.22;;;;;;;;;;5052560;28;20025;-44
2022/05/21 02:48:06;;;;;;;6.95;5.18;;;;;;;;;;5052479;28;20017;-44
2022/05/21 02:50:33;;;;;;;7.25;4.78;;;;;;;;;;5052297;28;20495;-43
2022/05/21 02:52:59;;;;;;;11.80;5.32;;;;;;;;;;5051297;28;20029;-44
2022/05/21 02:55:24;;;;;;;8.30;5.85;;;;;;;;;;5071993;28;20027;-43
2022/05/21 02:57:49;;;;;;;9.27;5.57;;;;;;;;;;5072353;28;20071;-44
2022/05/21 03:00:19;;;;;;;6.90;5.07;;;;;;;;;;5072591;28;20046;-44
2022/05/21 03:02:44;;;;;;;8.73;5.75;;;;;;;;;;5072225;28;20825;-44
2022/05/21 03:05:10;;;;;;;9.95;5.22;;;;;;;;;;5072561;28;20099;-44
2022/05/21 03:07:40;;;;;;;9.73;4.97;;;;;;;;;;5072615;28;20095;-43
2022/05/21 03:10:21;;;;;;;6.75;4.68;;;;;;;;;;5072520;28;20025;-43
2022/05/21 03:12:48;;;;;;;9.32;4.85;;;;;;;;;;5072478;28;20043;-41
2022/05/21 03:15:13;;;;;;;8.27;4.40;;;;;;;;;;5072188;28;20043;-43
2022/05/21 03:17:38;;;;;;;7.05;4.90;;;;;;;;;;5071199;28;20459;-44
2022/05/21 03:20:04;;;;;;;7.78;4.43;;;;;;;;;;5071030;28;20078;-44
2022/05/21 03:22:31;;;;;;;18.27;8.98;;;;;;;;;;5072131;28;20040;-44
2022/05/21 03:24:56;;;;;;;5.90;4.15;;;;;;;;;;5072949;28;20075;-43
2022/05/21 03:27:21;;;;;;;6.57;4.70;;;;;;;;;;5075670;28;20028;-43
2022/05/21 03:29:47;;;;;;;6.50;4.63;;;;;;;;;;5075744;28;20081;-44
2022/05/21 03:32:12;;;;;;;10.70;4.60;;;;;;;;;;5076011;28;20020;-44
2022/05/21 03:34:37;;;;;;;10.05;4.18;;;;;;;;;;5075924;28;20017;-43
2022/05/21 03:37:03;;;;;;;7.13;4.78;;;;;;;;;;5074557;28;20387;-44
2022/05/21 03:39:29;;;;;;;12.98;4.70;;;;;;;;;;5074654;28;20063;-44
2022/05/21 03:41:54;;;;;;;5.88;4.15;;;;;;;;;;5075525;28;20059;-43
2022/05/21 03:44:20;;;;;;;13.63;4.80;;;;;;;;;;5075550;28;20107;-43
2022/05/21 03:46:45;;;;;;;9.27;4.40;;;;;;;;;;5075857;28;20054;-43
2022/05/21 03:49:10;;;;;;;8.65;4.93;;;;;;;;;;5074383;28;20463;-43
2022/05/21 03:51:37;;;;;;;7.22;4.38;;;;;;;;;;5075459;28;20023;-43
2022/05/21 03:54:03;;;;;;;10.63;4.80;;;;;;;;;;5074146;28;20385;-43
2022/05/21 03:56:29;;;;;;;5.90;3.97;;;;;;;;;;5075458;28;20095;-43
2022/05/21 03:58:54;;;;;;;7.50;4.00;;;;;;;;;;5075125;28;20031;-44
2022/05/21 04:01:19;;;;;;;5.75;4.63;;;;;;;;;;5075387;28;20021;-43
2022/05/21 04:03:44;;;;;;;10.77;4.32;;;;;;;;;;5073981;28;20066;-43
2022/05/21 04:06:11;;;;;;;12.93;5.07;;;;;;;;;;5073844;28;20028;-43
2022/05/21 04:08:37;;;;;;;8.52;3.92;;;;;;;;;;5075259;28;20016;-44
2022/05/21 04:11:02;;;;;;;7.93;4.43;;;;;;;;;;5075220;28;20526;-44
2022/05/21 04:13:28;;;;;;;8.85;4.82;;;;;;;;;;5075247;28;20056;-44
2022/05/21 04:15:53;;;;;;;9.32;4.32;;;;;;;;;;5075276;28;20097;-43
2022/05/21 04:18:19;;;;;;;6.88;4.60;;;;;;;;;;5073971;28;20024;-43
2022/05/21 04:20:44;;;;;;;6.82;3.65;;;;;;;;;;5073743;28;20009;-44
2022/05/21 04:23:09;;;;;;;8.25;4.97;;;;;;;;;;5075054;28;20024;-44
2022/05/21 04:25:35;;;;;;;6.57;4.68;;;;;;;;;;5073321;28;20048;-44
2022/05/21 04:28:01;;;;;;;7.53;4.20;;;;;;;;;;5073454;28;20013;-43
2022/05/21 04:30:28;;;;;;;12.60;4.45;;;;;;;;;;5074627;28;20066;-43
2022/05/21 04:32:54;;;;;;;9.10;4.70;;;;;;;;;;5074822;28;20016;-44
2022/05/21 04:35:20;;;;;;;5.28;4.30;;;;;;;;;;5074772;28;20138;-44
2022/05/21 04:37:46;;;;;;;12.43;4.07;;;;;;;;;;5074739;28;20475;-44
2022/05/21 04:40:14;;;;;;;10.23;4.40;;;;;;;;;;5074645;28;20017;-43
2022/05/21 04:42:39;;;;;;;12.40;4.88;;;;;;;;;;5074034;28;20119;-44
2022/05/21 04:45:05;;;;;;;7.95;4.50;;;;;;;;;;5073402;28;20107;-44
2022/05/21 04:47:30;;;;;;;4.70;3.78;;;;;;;;;;5074560;28;20046;-43
2022/05/21 04:49:56;;;;;;;6.85;4.40;;;;;;;;;;5074665;28;20508;-44
2022/05/21 04:52:21;;;;;;;13.05;4.50;;;;;;;;;;5073045;28;20024;-43
2022/05/21 04:54:46;;;;;;;10.30;4.65;;;;;;;;;;5072992;28;20028;-44
2022/05/21 04:57:12;;;;;;;8.32;4.00;;;;;;;;;;5074083;28;20025;-44
2022/05/21 04:59:37;;;;;;;4.63;3.80;;;;;;;;;;5074340;28;20020;-43
2022/05/21 05:02:03;;;;;;;8.50;3.97;;;;;;;;;;5074240;28;20040;-43
2022/05/21 05:04:28;;;;;;;9.57;3.70;;;;;;;;;;5072883;28;20440;-43
2022/05/21 05:06:54;;;;;;;8.30;3.50;;;;;;;;;;5074001;28;20071;-44
2022/05/21 05:09:23;;;;;;;8.05;3.50;;;;;;;;;;5074055;28;20009;-44
2022/05/21 05:11:48;;;;;;;;;;;;;;;;;;5074337;28;20020;-43
2022/05/21 05:14:13;;;;;;;6.80;3.50;;;;;;;;;;5072876;28;19905;-43
2022/05/21 05:16:38;;;;;;;4.40;2.80;;;;;;;;;;5073780;28;20027;-43
2022/05/21 05:19:04;;;;;;;5.32;3.10;;;;;;;;;;5073970;28;20017;-42
2022/05/21 05:21:29;;;;;;;4.72;2.75;;;;;;;;;;5073932;28;20048;-45
2022/05/21 05:23:55;;;;;;;5.72;3.13;;;;;;;;;;5073502;28;20102;-40
2022/05/21 05:26:22;;;;;;;7.30;3.55;;;;;;;;;;5072131;28;20052;-43
2022/05/21 05:28:47;;;;;;;7.80;3.03;;;;;;;;;;5073455;28;20410;-43
2022/05/21 05:31:13;;;;;;;8.10;3.33;;;;;;;;;;5073387;28;20027;-42
2022/05/21 05:33:38;;;;;;;3.78;2.78;;;;;;;;;;5072445;28;20024;-43
2022/05/21 05:36:04;;;;;;;8.20;3.00;;;;;;;;;;5073153;28;20020;-42
2022/05/21 05:38:29;;;;;;;7.32;3.13;;;;;;;;;;5073481;28;20024;-42
2022/05/21 05:40:55;;;;;;;5.35;2.65;;;;;;;;;;5073122;28;20365;-43
2022/05/21 05:43:21;;;;;;;4.38;3.08;;;;;;;;;;5073521;28;20123;-42
2022/05/21 05:45:51;;;;;;;7.85;2.90;;;;;;;;;;5072074;28;20067;-43
2022/05/21 05:48:16;;;;;;;7.35;3.25;;;;;;;;;;5072759;28;20468;-43
2022/05/21 05:50:42;;;;;;;7.97;2.95;;;;;;;;;;5073338;28;20024;-43
2022/05/21 05:53:07;;;;;;;5.82;3.17;;;;;;;;;;5073290;28;20147;-43
2022/05/21 05:55:33;;;;;;;5.10;3.00;;;;;;;;;;5073026;28;20043;-43
2022/05/21 05:57:59;;;;;;;8.57;3.28;;;;;;;;;;5073653;28;20016;-44
2022/05/21 06:00:25;;;;;;;7.18;3.20;;;;;;;;;;5072077;28;20519;-43
2022/05/21 06:02:59;;;;;;;7.80;2.70;;;;;;;;;;5073139;28;20434;-42
2022/05/21 06:05:26;;;;;;;4.57;2.47;;;;;;;;;;5071599;28;20028;-42
2022/05/21 06:07:52;;;;;;;7.13;3.65;;;;;;;;;;5073263;28;20028;-41
2022/05/21 06:10:20;;;;;;;4.35;2.95;;;;;;;;;;5071769;28;20023;-42
2022/05/21 06:12:45;;;;;;;5.32;3.22;;;;;;;;;;5071902;28;20024;-43
2022/05/21 06:15:11;;;;;;;8.05;3.17;;;;;;;;;;5071625;28;20021;-43
2022/05/21 06:17:37;;;;;;;3.97;2.85;;;;;;;;;;5073248;28;20027;-43
2022/05/21 06:20:03;;;;;;;7.05;3.30;;;;;;;;;;5071828;28;20970;-43
2022/05/21 06:22:28;;;;;;;5.38;2.80;;;;;;;;;;5072812;28;20119;-43
2022/05/21 06:24:53;;;;;;;2.90;2.60;;;;;;;;;;5072795;28;20044;-43
2022/05/21 06:27:19;;;;;;;4.88;2.78;;;;;;;;;;5072940;28;20246;-43
2022/05/21 06:29:45;;;;;;;7.45;2.88;;;;;;;;;;5072957;28;20044;-42
2022/05/21 06:32:11;;;;;;;3.83;2.95;;;;;;;;;;5072877;28;20028;-43
2022/05/21 06:34:36;;;;;;;8.23;3.53;;;;;;;;;;5072829;28;20017;-43
2022/05/21 06:37:03;;;;;;;8.48;3.20;;;;;;;;;;5072614;28;20818;-43
2022/05/21 06:39:30;;;;;;;7.93;2.92;;;;;;;;;;5072430;28;20486;-43
2022/05/21 06:41:55;;;;;;;5.88;2.90;;;;;;;;;;5072902;28;20468;-43
2022/05/21 06:44:20;;;;;;;8.07;2.80;;;;;;;;;;5072562;28;20027;-44
2022/05/21 06:46:45;;;;;;;4.53;2.67;;;;;;;;;;5071444;28;20250;-43
2022/05/21 06:49:11;;;;;;;4.25;2.65;;;;;;;;;;5071082;28;20024;-43
2022/05/21 06:51:36;;;;;;;3.70;2.33;;;;;;;;;;5072342;28;20422;-43
2022/05/21 06:54:01;;;;;;;4.63;2.45;;;;;;;;;;5071222;28;20016;-41
2022/05/21 06:56:27;;;;;;;2.90;1.92;;;;;;;;;;5072612;28;20013;-44
2022/05/21 06:58:52;;;;;;;5.30;2.60;;;;;;;;;;5071736;28;20020;-43
2022/05/21 07:01:17;;;;;;;4.18;2.47;;;;;;;;;;5076652;28;20028;-43
2022/05/21 07:03:42;;;;;;;9.80;3.15;;;;;;;;;;5075080;28;20468;-43
2022/05/21 07:08:51;;;;;;;8.45;3.63;;;;;;;;;;5076595;28;20062;-43
2022/05/21 07:11:17;;;;;;;5.17;2.70;;;;;;;;;;5076317;28;20016;-43
2022/05/21 07:13:43;;;;;;;12.30;2.80;;;;;;;;;;5074991;28;20253;-43
2022/05/21 07:16:09;;;;;;;5.68;2.58;;;;;;;;;;5076115;28;20024;-44
2022/05/21 07:18:34;;;;;;;11.48;2.78;;;;;;;;;;5074867;28;20028;-43
2022/05/21 07:20:59;;;;;;;6.90;2.85;;;;;;;;;;5075669;28;20020;-42
2022/05/21 07:23:26;;;;;;;9.07;3.08;;;;;;;;;;5074806;28;20388;-43
2022/05/21 07:25:52;;;;;;;10.02;2.42;;;;;;;;;;5076094;28;20410;-43
2022/05/21 07:28:17;;;;;;;5.53;2.30;;;;;;;;;;5076003;28;20024;-43
2022/05/21 07:30:44;;;;;;;5.75;3.10;;;;;;;;;;5076004;28;20529;-43
2022/05/21 07:33:10;;;;;;;4.80;2.63;;;;;;;;;;5075605;28;20036;-44
2022/05/21 07:35:37;;;;;;;4.40;1.73;;;;;;;;;;5075594;28;20028;-42
2022/05/21 07:38:03;;;;;;;3.92;1.98;;;;;;;;;;5074580;28;20016;-40
2022/05/21 07:40:29;;;;;;;9.32;2.00;;;;;;;;;;5074509;28;20042;-44
2022/05/21 07:42:54;;;;;;;8.10;2.00;;;;;;;;;;5075700;28;20032;-40
2022/05/21 07:45:20;;;;;;;5.17;1.80;;;;;;;;;;5075616;28;20070;-43
2022/05/21 07:47:45;;;;;;;7.05;2.10;;;;;;;;;;5075642;28;20723;-42
2022/05/21 07:50:11;;;;;;;2.05;1.77;;;;;;;;;;5074089;28;20048;-43
2022/05/21 07:52:37;;;;;;;7.18;2.13;;;;;;;;;;5074586;28;20021;-42
2022/05/21 07:55:03;;;;;;;6.10;1.90;;;;;;;;;;5074268;28;20078;-43
2022/05/21 07:57:28;;;;;;;4.68;2.17;;;;;;;;;;5075559;28;20611;-42
2022/05/21 07:59:53;;;;;;;2.78;1.67;;;;;;;;;;5075526;28;20462;-43
2022/05/21 08:02:19;;;;;;;10.98;3.65;;;;;;;;;;5073961;28;20040;-42
2022/05/21 08:04:45;;;;;;;10.80;2.08;;;;;;;;;;5074014;28;20027;-43
2022/05/21 08:07:11;;;;;;;6.13;1.70;;;;;;;;;;5074005;28;20463;-43
2022/05/21 08:09:37;;;;;;;6.20;2.22;;;;;;;;;;5074113;28;20027;-43
2022/05/21 08:12:03;;;;;;;4.63;2.17;;;;;;;;;;5074654;28;20016;-42
2022/05/21 08:14:29;;;;;;;5.53;1.83;;;;;;;;;;5073887;28;20025;-39
2022/05/21 08:16:54;;;;;;;3.83;1.52;;;;;;;;;;5073853;28;20082;-40
2022/05/21 08:19:19;;;;;;;3.58;1.60;;;;;;;;;;5073511;28;20063;-43
2022/05/21 08:21:45;;;;;;;5.97;2.00;;;;;;;;;;5075130;28;20104;-38
2022/05/21 08:26:56;;;;;;;4.40;2.00;;;;;;;;;;5075059;28;20032;-41
2022/05/21 08:29:21;;;;;;;3.55;1.73;;;;;;;;;;5074931;28;20013;-42
2022/05/21 08:31:47;;;;;;;3.33;1.73;;;;;;;;;;5074667;28;20509;-42
2022/05/21 08:34:12;;;;;;;9.60;2.05;;;;;;;;;;5074997;28;20013;-41
2022/05/21 08:36:38;;;;;;;5.80;1.63;;;;;;;;;;5075221;28;20025;-43
2022/05/21 08:39:03;;;;;;;5.82;1.60;;;;;;;;;;5074655;28;20035;-44
2022/05/21 08:41:31;;;;;;;10.23;1.92;;;;;;;;;;5074734;28;20020;-43
2022/05/21 08:44:02;;;;;;;6.50;1.65;;;;;;;;;;5072990;28;20047;-43
2022/05/21 08:46:27;;;;;;;6.95;2.30;;;;;;;;;;5074196;28;20032;-44
2022/05/21 08:48:55;;;;;;;2.63;1.30;;;;;;;;;;5073346;28;20028;-41
2022/05/21 08:51:23;;;;;;;4.53;1.10;;;;;;;;;;5074379;28;20700;-43
2022/05/21 08:53:50;;;;;;;4.63;1.60;;;;;;;;;;5074531;28;20365;-40
2022/05/21 08:56:15;;;;;;;9.07;1.20;;;;;;;;;;5074497;28;20021;-41
2022/05/21 08:58:46;;;;;;;11.73;5.40;;;;;;;;;;5074147;28;20029;-43
2022/05/21 09:01:13;;;;;;;5.43;2.47;;;;;;;;;;5073958;28;20024;-43
2022/05/21 09:03:38;;;;;;;5.15;1.52;;;;;;;;;;5074230;28;20036;-43
2022/05/21 09:06:10;;;;;;;7.78;1.40;;;;;;;;;;5074011;28;20431;-43
2022/05/21 09:08:39;;;;;;;3.05;2.10;;;;;;;;;;5072890;28;20474;-43
2022/05/21 09:11:27;;;;;;;5.28;1.40;;;;;;;;;;5073957;28;20479;-43
2022/05/21 09:14:11;;;;;;;5.72;2.10;;;;;;;;;;5072734;28;20024;-43
2022/05/21 09:16:56;;;;;;;4.10;1.98;;;;;;;;;;5073995;28;20028;-43
2022/05/21 09:19:25;;;;;;;6.63;2.15;;;;;;;;;;5073917;28;20423;-44
2022/05/21 09:21:59;;;;;;;26.38;2.20;;;;;;;;;;5073423;28;20161;-42
2022/05/21 09:24:32;;;;;;;4.65;1.48;;;;;;;;;;5072890;28;20470;-43
2022/05/21 09:34:36;;;;;;;5.68;1.77;;;;;;;;;;5068237;28;20379;-38
2022/05/21 09:37:02;;;;;;;9.70;1.80;;;;;;;;;;5066816;28;20079;-39
2022/05/21 09:39:32;;;;;;;4.53;1.70;;;;;;;;;;5055205;28;20025;-38
2022/05/21 09:42:06;;;;;;;6.35;1.73;;;;;;;;;;5050273;28;20463;-38
2022/05/21 09:47:22;;;;;;;4.95;2.00;;;;;;;;;;5050015;28;20060;-39
2022/05/21 09:50:08;;;;;;;5.68;2.00;;;;;;;;;;5049856;28;20025;-39
2022/05/21 09:52:34;;;;;;;4.75;1.85;;;;;;;;;;5049567;28;20056;-38
2022/05/21 09:55:01;;;;;;;5.45;2.05;;;;;;;;;;5048818;28;20344;-38
2022/05/21 09:57:37;;;;;;;5.78;2.05;;;;;;;;;;5049942;28;20229;-38
2022/05/21 10:00:21;;;;;;;5.28;1.92;;;;;;;;;;5048593;28;20025;-38
2022/05/21 10:02:49;;;;;;;3.83;2.03;;;;;;;;;;5048667;28;20022;-38
2022/05/21 10:05:21;;;;;;;12.05;2.38;;;;;;;;;;5049826;28;20045;-38
2022/05/21 10:10:58;;;;;;;9.68;2.10;;;;;;;;;;5049851;28;20087;-41
2022/05/21 10:13:25;;;;;;;11.43;2.60;;;;;;;;;;5049701;28;20041;-38
2022/05/21 10:15:59;;;;;;;6.90;2.60;;;;;;;;;;5049529;28;20021;-38
2022/05/21 10:18:43;;;;;;;7.93;2.55;;;;;;;;;;5048247;28;20064;-39
2022/05/21 10:21:15;;;;;;;8.30;2.97;;;;;;;;;;5055849;28;20017;-39
2022/05/21 10:23:41;;;;;;;7.63;2.15;;;;;;;;;;5069794;28;20024;-39
2022/05/21 10:26:31;;;;;;;3.58;2.05;;;;;;;;;;5065552;28;20025;-40
2022/05/21 10:28:56;;;;;;;9.88;2.40;;;;;;;;;;5034613;28;20048;-39
2022/05/21 10:31:35;;;;;;;7.97;2.38;;;;;;;;;;5027968;28;20539;-39
2022/05/21 10:34:13;;;;;;;8.68;3.15;;;;;;;;;;5027829;28;20064;-39
2022/05/21 10:36:39;;;;;;;10.35;2.30;;;;;;;;;;5029240;28;20030;-39
2022/05/21 10:39:10;;;;;;;6.75;2.10;;;;;;;;;;5028054;28;20033;-39
2022/05/21 10:41:51;;;;;;;11.75;2.42;;;;;;;;;;5029183;28;20480;-39
2022/05/21 10:44:35;;;;;;;4.50;2.08;;;;;;;;;;5024987;28;20105;-39
2022/05/21 10:47:19;;;;;;;4.40;2.00;;;;;;;;;;5016051;28;20034;-39
2022/05/21 10:50:03;;;;;;;8.13;2.20;;;;;;;;;;5014642;28;20515;-39
2022/05/21 10:52:28;;;;;;;9.95;2.35;;;;;;;;;;5015535;28;20029;-39
2022/05/21 10:55:01;;;;;;;10.38;2.67;;;;;;;;;;5015799;28;20107;-39
2022/05/21 10:57:45;;;;;;;7.30;1.83;;;;;;;;;;5031137;28;20032;-40
2022/05/21 11:00:17;;;;;;;7.47;1.65;;;;;;;;;;5014390;28;20026;-39
2022/05/21 11:02:45;;;;;;;10.88;2.63;;;;;;;;;;5015499;28;20105;-39
2022/05/21 11:05:10;;;;;;;7.03;1.98;;;;;;;;;;5015476;28;20030;-39
2022/05/21 11:07:42;;;;;;;6.10;2.05;;;;;;;;;;5015877;28;20030;-39
2022/05/21 11:10:07;;;;;;;4.25;1.98;;;;;;;;;;5015597;28;20376;-40
2022/05/21 11:12:48;;;;;;;4.97;1.80;;;;;;;;;;5015528;28;20034;-40
2022/05/21 11:15:27;;;;;;;7.03;1.90;;;;;;;;;;5030578;28;20022;-40
2022/05/21 11:17:57;;;;;;;8.73;1.80;;;;;;;;;;5015738;28;20084;-40
2022/05/21 11:20:29;;;;;;;14.35;1.70;;;;;;;;;;5027357;28;20025;-40
2022/05/21 11:23:07;;;;;;;12.10;1.80;;;;;;;;;;5034193;28;20072;-40
2022/05/21 11:25:33;;;;;;;8.05;1.40;;;;;;;;;;5035059;28;20087;-40
2022/05/21 11:28:17;;;;;;;3.75;1.20;;;;;;;;;;5034781;28;20013;-40
2022/05/21 11:30:42;;;;;;;4.00;1.38;;;;;;;;;;5035257;28;20029;-38
2022/05/21 11:38:44;;;;;;;9.77;1.85;;;;;;;;;;5034731;28;20075;-39
2022/05/21 11:41:28;;;;;;;2.95;1.40;;;;;;;;;;5034724;28;20029;-39
2022/05/21 11:47:18;;;;;;;3.22;1.42;;;;;;;;;;5034456;28;20028;-40
2022/05/21 11:49:52;;;;;;;6.45;1.73;;;;;;;;;;5023334;28;20116;-40
2022/05/21 11:52:29;;;;;;;4.72;1.50;;;;;;;;;;5034777;28;20083;-39
2022/05/21 11:54:58;;;;;;;5.70;1.55;;;;;;;;;;5033183;28;20029;-39
2022/05/21 11:57:34;;;;;;;20.75;1.65;;;;;;;;;;5033583;28;20040;-39
2022/05/21 12:00:00;;;;;;;5.90;1.05;;;;;;;;;;5034298;28;20029;-39
2022/05/21 12:02:30;;;;;;;5.68;1.52;;;;;;;;;;5034384;28;20067;-39
2022/05/21 12:04:59;;;;;;;14.45;1.83;;;;;;;;;;5034256;28;20075;-40
2022/05/21 12:07:43;;;;;;;15.63;1.67;;;;;;;;;;5034197;28;20033;-39
2022/05/21 12:10:16;;;;;;;4.57;1.33;;;;;;;;;;5034111;28;20052;-39
2022/05/21 12:13:00;;;;;;;1.35;0.90;;;;;;;;;;5034230;28;20025;-40
2022/05/21 12:15:41;;;;;;;5.45;1.05;;;;;;;;;;5034136;28;20060;-39
2022/05/21 12:18:27;;;;;;;7.15;1.52;;;;;;;;;;5034082;28;20025;-40
2022/05/21 12:20:53;;;;;;;11.85;1.40;;;;;;;;;;5034023;28;20021;-39
2022/05/21 12:23:31;;;;;;;9.45;1.70;;;;;;;;;;5034019;28;20024;-39
2022/05/21 12:25:58;;;;;;;5.63;1.30;;;;;;;;;;5034004;28;20030;-39
2022/05/21 12:28:50;;;;;;;6.45;1.48;;;;;;;;;;5032135;28;20028;-39
2022/05/21 12:31:20;;;;;;;3.22;1.35;;;;;;;;;;5025158;28;20038;-39
2022/05/21 12:34:05;;;;;;;8.68;1.30;;;;;;;;;;5033565;28;20554;-39
2022/05/21 12:36:51;;;;;;;18.15;1.98;;;;;;;;;;5033391;28;20034;-39
2022/05/21 12:39:19;;;;;;;10.43;1.30;;;;;;;;;;5032147;28;20476;-39
2022/05/21 12:41:46;;;;;;;11.55;1.20;;;;;;;;;;5033780;28;20092;-39
2022/05/21 12:44:32;;;;;;;3.22;1.25;;;;;;;;;;5033623;28;20105;-39
2022/05/21 12:46:58;;;;;;;4.97;1.50;;;;;;;;;;5033253;28;20029;-39
2022/05/21 12:49:24;;;;;;;11.30;2.13;;;;;;;;;;5033372;28;20029;-40
2022/05/21 12:51:50;;;;;;;9.52;1.63;;;;;;;;;;5015581;28;20490;-39
2022/05/21 12:54:25;;;;;;;9.23;1.50;;;;;;;;;;5033559;28;20115;-39
2022/05/21 12:56:51;;;;;;;17.85;1.95;;;;;;;;;;5033404;28;20063;-39
2022/05/21 12:59:21;;;;;;;4.03;1.50;;;;;;;;;;5031985;28;20030;-39
2022/05/21 13:01:54;;;;;;;6.15;1.42;;;;;;;;;;5033331;28;20456;-39
2022/05/21 13:04:21;;;;;;;7.05;1.38;;;;;;;;;;5031737;28;20021;-39
2022/05/21 13:06:50;;;;;;;5.82;1.45;;;;;;;;;;5033351;28;20063;-39
2022/05/21 13:09:16;;;;;;;8.02;1.55;;;;;;;;;;5033262;28;20462;-40
2022/05/21 13:11:43;;;;;;;11.05;1.90;;;;;;;;;;5033157;28;20024;-39
2022/05/21 13:14:10;;;;;;;2.53;1.23;;;;;;;;;;5033056;28;20037;-39
2022/05/21 13:16:45;;;;;;;5.38;1.40;;;;;;;;;;5028509;28;20017;-39
2022/05/21 13:19:17;;;;;;;7.88;1.88;;;;;;;;;;5012386;28;20022;-40
2022/05/21 13:21:59;;;;;;;8.07;1.80;;;;;;;;;;5013493;28;20033;-39
2022/05/21 13:24:30;;;;;;;4.40;1.42;;;;;;;;;;5013143;28;20369;-39
2022/05/21 13:27:12;;;;;;;5.90;1.67;;;;;;;;;;5013405;28;20026;-39
2022/05/21 13:29:38;;;;;;;12.70;1.55;;;;;;;;;;5013317;28;20029;-41
2022/05/21 13:32:19;;;;;;;6.32;2.63;;;;;;;;;;5013226;28;20037;-39
2022/05/21 13:34:44;;;;;;;7.60;1.67;;;;;;;;;;5011958;28;20492;-39
2022/05/21 13:37:10;;;;;;;2.95;1.58;;;;;;;;;;5013120;28;20039;-39
2022/05/21 13:39:36;;;;;;;6.63;2.17;;;;;;;;;;5011904;28;20030;-42
2022/05/21 13:42:07;;;;;;;5.43;2.20;;;;;;;;;;5013088;28;20021;-39
2022/05/21 13:44:35;;;;;;;7.00;1.90;;;;;;;;;;5013186;28;20022;-39
2022/05/21 13:47:04;;;;;;;9.48;1.83;;;;;;;;;;5013010;28;20029;-39
2022/05/21 13:49:29;;;;;;;4.25;1.42;;;;;;;;;;5013142;28;20088;-39
2022/05/21 13:51:55;;;;;;;4.40;1.48;;;;;;;;;;5011651;28;20022;-39
2022/05/21 13:54:22;;;;;;;6.18;1.48;;;;;;;;;;5012632;28;20041;-39
2022/05/21 13:57:00;;;;;;;4.75;1.60;;;;;;;;;;5013087;28;20526;-39
2022/05/21 13:59:26;;;;;;;6.50;1.98;;;;;;;;;;5013254;28;20032;-39
2022/05/21 14:01:53;;;;;;;4.18;1.55;;;;;;;;;;5012952;28;20021;-39
2022/05/21 14:04:28;;;;;;;11.82;1.70;;;;;;;;;;5011764;28;20028;-39
2022/05/21 14:06:54;;;;;;;7.05;1.75;;;;;;;;;;5012674;28;20030;-39
2022/05/21 14:09:20;;;;;;;12.60;1.50;;;;;;;;;;5013282;28;20041;-39
2022/05/21 14:11:53;;;;;;;4.88;1.73;;;;;;;;;;5011395;28;20022;-39
2022/05/21 14:14:20;;;;;;;2.70;1.40;;;;;;;;;;5011500;28;20041;-39
2022/05/21 14:16:46;;;;;;;9.20;1.50;;;;;;;;;;5029512;28;20491;-39
2022/05/21 14:19:12;;;;;;;13.10;1.52;;;;;;;;;;5032949;28;20101;-39
2022/05/21 14:21:55;;;;;;;9.55;1.63;;;;;;;;;;5036045;28;20548;-39
2022/05/21 14:24:25;;;;;;;4.47;1.77;;;;;;;;;;5034771;28;20025;-40
2022/05/21 14:26:58;;;;;;;4.07;1.45;;;;;;;;;;5036070;28;20032;-40
2022/05/21 14:29:36;;;;;;;4.88;1.65;;;;;;;;;;5036071;28;20021;-40
2022/05/21 14:32:10;;;;;;;4.88;1.45;;;;;;;;;;5034437;28;20079;-40
2022/05/21 14:34:36;;;;;;;30.05;3.83;;;;;;;;;;5036074;28;20103;-40
2022/05/21 14:37:01;;;;;;;9.98;1.63;;;;;;;;;;5035886;28;20029;-40
2022/05/21 14:39:26;;;;;;;3.00;1.38;;;;;;;;;;5035708;28;20117;-40
2022/05/21 14:41:57;;;;;;;6.35;1.60;;;;;;;;;;5035850;28;20028;-40
2022/05/21 14:44:24;;;;;;;8.02;1.35;;;;;;;;;;5034469;28;20025;-41
2022/05/21 14:49:34;;;;;;;4.10;1.45;;;;;;;;;;5035917;28;20084;-41
2022/05/21 14:54:45;;;;;;;3.67;1.20;;;;;;;;;;5035814;28;20044;-40
2022/05/21 14:57:13;;;;;;;2.88;1.55;;;;;;;;;;5035522;28;20030;-40
2022/05/21 14:59:38;;;;;;;10.43;1.65;;;;;;;;;;5035718;28;20026;-40
2022/05/21 15:02:05;;;;;;;4.32;1.35;;;;;;;;;;5035577;28;20017;-40
2022/05/21 15:04:31;;;;;;;3.28;1.40;;;;;;;;;;5035436;28;20479;-40
2022/05/21 15:06:57;;;;;;;4.40;1.40;;;;;;;;;;5035717;28;20367;-40
2022/05/21 15:09:22;;;;;;;9.50;1.25;;;;;;;;;;5035332;28;20021;-40
2022/05/21 15:11:48;;;;;;;6.78;1.40;;;;;;;;;;5035260;28;20029;-40
2022/05/21 15:14:14;;;;;;;3.40;1.33;;;;;;;;;;5030726;28;20640;-40
2022/05/21 15:16:40;;;;;;;2.30;0.93;;;;;;;;;;5015617;28;20029;-40
2022/05/21 15:19:05;;;;;;;4.32;1.48;;;;;;;;;;5015539;28;20022;-40
2022/05/21 15:21:32;;;;;;;1.95;0.95;;;;;;;;;;5014126;28;20460;-40
2022/05/21 15:23:57;;;;;;;1.52;1.08;;;;;;;;;;5015275;28;20025;-40